Time;durP1;ratioP1;P1;durP2;ratioP2;P2;SDS_P1;SDS_P2;PMS_P1;PMS_P2;Temp;Humidity;BMP_temperature;BMP_pressure;BME280_temperature;BME280_humidity;BME280_pressure;Samples;Min_cycle;Max_cycle;Signal;HPM_P1;HPM_P2
2022/03/22 00:00:40;;;;;;;31.27;22.63;;;8.60;70.20;;;;;;5014955;28;20469;-82
2022/03/22 00:03:07;;;;;;;32.08;22.08;;;8.60;70.20;;;;;;5044098;28;20045;-82
2022/03/22 00:05:37;;;;;;;32.25;24.05;;;8.60;70.30;;;;;;5034914;28;20045;-82
2022/03/22 00:08:04;;;;;;;34.00;23.67;;;8.50;70.30;;;;;;5034380;28;20461;-82
2022/03/22 00:10:31;;;;;;;34.45;22.85;;;8.50;70.30;;;;;;5034687;28;20103;-82
2022/03/22 00:12:58;;;;;;;29.45;22.92;;;8.50;70.40;;;;;;5032682;28;20578;-82
2022/03/22 00:15:25;;;;;;;31.85;23.20;;;8.50;70.40;;;;;;5032373;28;20082;-81
2022/03/22 00:18:12;;;;;;;32.97;24.67;;;8.50;70.40;;;;;;5047859;28;20517;-83
2022/03/22 00:20:42;;;;;;;32.17;23.73;;;8.40;70.50;;;;;;5033871;28;20095;-83
2022/03/22 00:23:09;;;;;;;28.85;23.05;;;8.40;70.50;;;;;;5038606;28;20045;-82
2022/03/22 00:25:36;;;;;;;33.20;24.48;;;8.40;70.60;;;;;;5038753;28;20107;-82
2022/03/22 00:28:03;;;;;;;32.45;23.95;;;8.40;70.60;;;;;;5037327;28;20107;-82
2022/03/22 00:30:32;;;;;;;35.65;23.95;;;8.40;70.70;;;;;;5035312;28;20406;-82
2022/03/22 00:33:03;;;;;;;33.08;23.75;;;8.30;70.70;;;;;;5040389;28;20084;-82
2022/03/22 00:35:36;;;;;;;31.00;23.23;;;8.30;70.70;;;;;;5036731;28;20095;-82
2022/03/22 00:38:08;;;;;;;34.00;24.33;;;8.30;70.70;;;;;;5038346;28;20053;-82
2022/03/22 00:40:35;;;;;;;32.88;23.50;;;8.20;70.80;;;;;;5038621;28;20064;-82
2022/03/22 00:43:02;;;;;;;36.63;25.63;;;8.20;70.80;;;;;;5036992;28;20053;-82
2022/03/22 00:45:32;;;;;;;33.88;23.13;;;8.20;70.80;;;;;;5035414;28;20046;-81
2022/03/22 00:48:01;;;;;;;33.60;23.73;;;8.20;70.90;;;;;;5040306;28;20094;-82
2022/03/22 00:50:35;;;;;;;33.40;23.85;;;8.20;70.90;;;;;;5037948;28;20472;-82
2022/03/22 00:53:07;;;;;;;34.42;23.80;;;8.10;70.90;;;;;;5038179;28;20103;-82
2022/03/22 00:55:36;;;;;;;32.95;24.08;;;8.10;70.90;;;;;;5038287;28;20136;-82
2022/03/22 00:58:04;;;;;;;35.42;23.92;;;8.10;71.00;;;;;;5036690;28;20513;-81
2022/03/22 01:00:31;;;;;;;32.80;22.98;;;8.00;71.00;;;;;;5034869;28;20465;-82
2022/03/22 01:03:00;;;;;;;35.42;24.48;;;8.00;71.00;;;;;;5040142;28;20061;-81
2022/03/22 01:05:29;;;;;;;36.00;24.42;;;8.00;71.10;;;;;;5037712;28;20053;-81
2022/03/22 01:08:01;;;;;;;33.58;24.20;;;8.00;71.10;;;;;;5037968;28;20053;-82
2022/03/22 01:10:31;;;;;;;33.95;23.95;;;7.90;71.10;;;;;;5037804;28;20049;-81
2022/03/22 01:12:59;;;;;;;35.20;24.25;;;7.90;71.10;;;;;;5034307;28;20060;-81
2022/03/22 01:15:33;;;;;;;34.55;24.33;;;7.90;71.10;;;;;;5035300;28;20049;-81
2022/03/22 01:18:05;;;;;;;38.10;24.30;;;7.90;71.20;;;;;;5038817;28;20053;-81
2022/03/22 01:20:42;;;;;;;36.55;24.88;;;7.90;71.20;;;;;;5037287;28;20054;-81
2022/03/22 01:23:10;;;;;;;35.13;24.08;;;7.80;71.20;;;;;;5037595;28;20115;-81
2022/03/22 01:25:41;;;;;;;37.53;26.17;;;7.80;71.20;;;;;;5037542;28;20045;-81
2022/03/22 01:28:11;;;;;;;35.70;25.27;;;7.80;71.20;;;;;;5036818;28;20060;-81
2022/03/22 01:30:38;;;;;;;38.70;26.17;;;7.80;71.30;;;;;;5033112;28;20077;-81
2022/03/22 01:33:06;;;;;;;35.13;24.98;;;7.70;71.30;;;;;;5039073;28;20107;-81
2022/03/22 01:35:33;;;;;;;33.28;24.15;;;7.70;71.30;;;;;;5037459;28;20041;-81
2022/03/22 01:38:00;;;;;;;34.70;25.02;;;7.70;71.40;;;;;;5037451;28;20045;-81
2022/03/22 01:40:29;;;;;;;34.05;23.17;;;7.70;71.40;;;;;;5037335;28;20110;-82
2022/03/22 01:42:56;;;;;;;34.90;24.17;;;7.70;71.40;;;;;;5034896;28;20123;-81
2022/03/22 01:45:24;;;;;;;36.33;24.73;;;7.60;71.40;;;;;;5035251;28;20095;-81
2022/03/22 01:47:52;;;;;;;35.20;24.27;;;7.60;71.40;;;;;;5036650;28;20053;-81
2022/03/22 01:50:20;;;;;;;33.85;23.38;;;7.50;71.50;;;;;;5037209;28;20053;-81
2022/03/22 01:52:47;;;;;;;34.13;24.75;;;7.50;71.50;;;;;;5037026;28;20053;-81
2022/03/22 01:55:19;;;;;;;34.03;25.05;;;7.50;71.50;;;;;;5036959;28;20055;-81
2022/03/22 01:57:47;;;;;;;33.28;23.90;;;7.50;71.50;;;;;;5033385;28;20049;-81
2022/03/22 02:00:19;;;;;;;35.42;24.25;;;7.50;71.50;;;;;;5037263;28;20046;-81
2022/03/22 02:05:57;;;;;;;34.00;23.55;;;7.40;71.50;;;;;;5036670;28;20053;-81
2022/03/22 02:08:32;;;;;;;33.45;23.90;;;7.40;71.50;;;;;;5034840;28;20046;-81
2022/03/22 02:11:01;;;;;;;33.15;23.02;;;7.40;71.60;;;;;;5035787;28;20468;-81
2022/03/22 02:13:31;;;;;;;35.63;24.63;;;7.40;71.60;;;;;;5035932;28;20053;-81
2022/03/22 02:16:03;;;;;;;32.28;23.90;;;7.30;71.60;;;;;;5034068;28;20048;-81
2022/03/22 02:18:32;;;;;;;34.83;23.38;;;7.30;71.60;;;;;;5032116;28;20108;-81
2022/03/22 02:21:00;;;;;;;34.25;23.65;;;7.30;71.60;;;;;;5036367;28;20414;-81
2022/03/22 02:23:41;;;;;;;36.63;25.65;;;7.30;71.70;;;;;;5035712;28;20049;-81
2022/03/22 02:26:08;;;;;;;34.22;23.02;;;7.30;71.70;;;;;;5035609;28;20092;-81
2022/03/22 02:28:34;;;;;;;33.63;23.30;;;7.20;71.70;;;;;;5035609;28;20050;-81
2022/03/22 02:31:01;;;;;;;37.60;24.67;;;7.20;71.70;;;;;;5033568;28;20057;-81
2022/03/22 02:33:28;;;;;;;34.95;24.77;;;7.20;71.70;;;;;;5032426;28;20045;-81
2022/03/22 02:35:55;;;;;;;33.88;23.25;;;7.20;71.70;;;;;;5036519;28;20099;-81
2022/03/22 02:38:22;;;;;;;34.97;23.38;;;7.20;71.70;;;;;;5036253;28;20053;-81
2022/03/22 02:40:49;;;;;;;35.50;23.98;;;7.20;71.70;;;;;;5036141;28;20053;-81
2022/03/22 02:43:17;;;;;;;34.50;23.45;;;7.20;71.80;;;;;;5035403;28;20057;-81
2022/03/22 02:45:44;;;;;;;32.53;23.70;;;7.10;71.80;;;;;;5032036;28;20045;-81
2022/03/22 02:48:11;;;;;;;30.13;22.05;;;7.10;71.80;;;;;;5037144;28;20072;-81
2022/03/22 02:50:38;;;;;;;33.38;22.73;;;7.00;71.80;;;;;;5034018;28;20410;-81
2022/03/22 02:53:05;;;;;;;31.40;22.90;;;7.00;71.80;;;;;;5035892;28;20104;-81
2022/03/22 02:55:32;;;;;;;31.63;22.58;;;7.00;71.80;;;;;;5035922;28;20049;-81
2022/03/22 02:57:59;;;;;;;34.60;23.35;;;7.00;71.80;;;;;;5034029;28;20045;-81
2022/03/22 03:00:26;;;;;;;32.67;23.70;;;7.00;71.80;;;;;;5032892;28;20049;-82
2022/03/22 03:02:54;;;;;;;33.63;22.77;;;7.00;71.80;;;;;;5037829;28;20053;-82
2022/03/22 03:05:23;;;;;;;32.08;22.17;;;6.90;71.80;;;;;;5035754;28;20104;-82
2022/03/22 03:07:51;;;;;;;29.73;21.70;;;6.90;71.80;;;;;;5035725;28;20045;-82
2022/03/22 03:10:18;;;;;;;33.72;22.52;;;6.90;71.80;;;;;;5035664;28;20045;-82
2022/03/22 03:12:46;;;;;;;31.17;22.48;;;6.90;71.80;;;;;;5031792;28;20064;-81
2022/03/22 03:15:13;;;;;;;35.63;23.75;;;6.90;71.80;;;;;;5035770;28;20049;-81
2022/03/22 03:17:40;;;;;;;34.20;22.90;;;6.80;71.80;;;;;;5036174;28;20480;-81
2022/03/22 03:20:08;;;;;;;32.28;23.30;;;6.80;71.80;;;;;;5034278;28;20099;-81
2022/03/22 03:22:35;;;;;;;30.30;22.00;;;6.80;71.90;;;;;;5035418;28;20049;-81
2022/03/22 03:25:03;;;;;;;33.67;22.80;;;6.80;71.80;;;;;;5033972;28;20045;-81
2022/03/22 03:27:30;;;;;;;34.08;22.80;;;6.80;71.90;;;;;;5032315;28;20100;-81
2022/03/22 03:29:56;;;;;;;31.40;23.10;;;6.80;71.90;;;;;;5036878;28;20108;-81
2022/03/22 03:32:23;;;;;;;34.58;22.65;;;6.70;71.90;;;;;;5035187;28;20501;-81
2022/03/22 03:34:50;;;;;;;31.90;22.67;;;6.70;71.90;;;;;;5035169;28;20099;-81
2022/03/22 03:37:17;;;;;;;31.40;22.70;;;6.70;71.90;;;;;;5035296;28;20049;-81
2022/03/22 03:39:45;;;;;;;33.95;22.27;;;6.70;71.90;;;;;;5031372;28;20049;-81
2022/03/22 03:42:12;;;;;;;32.67;22.92;;;6.60;71.90;;;;;;5035879;28;20183;-81
2022/03/22 03:47:24;;;;;;;32.28;23.50;;;6.60;72.00;;;;;;5034971;28;20049;-81
2022/03/22 03:49:53;;;;;;;32.00;22.40;;;6.60;72.00;;;;;;5033655;28;20046;-81
2022/03/22 03:52:23;;;;;;;33.22;22.83;;;6.60;72.00;;;;;;5034696;28;20466;-81
2022/03/22 03:54:52;;;;;;;35.83;24.08;;;6.50;72.00;;;;;;5031755;28;20480;-81
2022/03/22 03:57:21;;;;;;;31.45;22.58;;;6.50;72.00;;;;;;5034291;28;20049;-81
2022/03/22 03:59:49;;;;;;;35.20;22.58;;;6.50;72.10;;;;;;5036060;28;20490;-81
2022/03/22 04:02:17;;;;;;;34.33;22.95;;;6.50;72.10;;;;;;5034899;28;20046;-81
2022/03/22 04:04:51;;;;;;;32.08;21.48;;;6.40;72.10;;;;;;5034752;28;20045;-81
2022/03/22 04:07:22;;;;;;;36.75;24.02;;;6.40;72.10;;;;;;5034746;28;20140;-80
2022/03/22 04:09:49;;;;;;;32.83;23.45;;;6.40;72.10;;;;;;5031474;28;20042;-81
2022/03/22 04:12:17;;;;;;;33.55;23.63;;;6.40;72.10;;;;;;5034490;28;20099;-81
2022/03/22 04:14:44;;;;;;;35.90;23.80;;;6.40;72.10;;;;;;5035296;28;20053;-82
2022/03/22 04:17:11;;;;;;;34.50;23.92;;;6.40;72.20;;;;;;5034689;28;20054;-81
2022/03/22 04:19:38;;;;;;;31.77;22.98;;;6.40;72.10;;;;;;5034699;28;20533;-81
2022/03/22 04:22:08;;;;;;;31.80;22.05;;;6.40;72.10;;;;;;5033559;28;20040;-81
2022/03/22 04:24:35;;;;;;;34.53;24.42;;;6.30;72.10;;;;;;5030783;28;20069;-82
2022/03/22 04:32:43;;;;;;;38.08;24.35;;;6.20;72.20;;;;;;5034379;28;20510;-82
2022/03/22 04:35:13;;;;;;;38.60;24.25;;;6.20;72.20;;;;;;5034439;28;20111;-82
2022/03/22 04:37:41;;;;;;;35.80;24.48;;;6.20;72.20;;;;;;5034616;28;20045;-81
2022/03/22 04:40:10;;;;;;;33.78;23.83;;;6.20;72.20;;;;;;5033952;28;20099;-81
2022/03/22 04:42:37;;;;;;;35.67;24.30;;;6.20;72.20;;;;;;5030001;28;20056;-81
2022/03/22 04:45:05;;;;;;;36.20;23.80;;;6.10;72.20;;;;;;5036535;28;20050;-81
2022/03/22 04:47:32;;;;;;;35.50;23.63;;;6.10;72.30;;;;;;5034250;28;20390;-81
2022/03/22 04:50:00;;;;;;;33.17;23.75;;;6.10;72.30;;;;;;5034394;28;20054;-81
2022/03/22 04:57:58;;;;;;;37.38;23.38;;;6.00;72.30;;;;;;5018801;28;20100;-81
2022/03/22 05:00:25;;;;;;;31.20;22.48;;;6.00;72.30;;;;;;5031950;28;20049;-82
2022/03/22 05:02:52;;;;;;;33.65;23.38;;;6.00;72.40;;;;;;5034510;28;20049;-82
2022/03/22 05:06:25;;;;;;;32.40;21.52;;;6.00;72.30;;;;;;5034330;28;20521;-82
2022/03/22 05:08:06;;;;;;;30.88;21.65;;;6.00;72.30;;;;;;5036502;28;20095;-82
2022/03/22 05:10:34;;;;;;;32.33;22.92;;;5.90;72.30;;;;;;5037384;28;20054;-81
2022/03/22 05:13:02;;;;;;;31.50;21.52;;;6.00;72.30;;;;;;5036144;28;20103;-82
2022/03/22 05:15:31;;;;;;;30.27;21.60;;;5.90;72.30;;;;;;5034841;28;20064;-81
2022/03/22 05:17:58;;;;;;;32.35;22.70;;;5.90;72.30;;;;;;5039811;28;20050;-81
2022/03/22 05:20:25;;;;;;;30.23;21.73;;;5.90;72.30;;;;;;5037788;28;20053;-81
2022/03/22 05:22:52;;;;;;;29.33;21.45;;;5.90;72.40;;;;;;5036595;28;20042;-80
2022/03/22 05:25:19;;;;;;;32.42;22.35;;;5.90;72.30;;;;;;5037397;28;20098;-81
2022/03/22 05:27:46;;;;;;;31.75;22.58;;;5.90;72.40;;;;;;5034124;28;20045;-81
2022/03/22 05:30:14;;;;;;;32.78;22.63;;;5.80;72.40;;;;;;5037777;28;20465;-81
2022/03/22 05:32:41;;;;;;;31.70;22.35;;;5.90;72.40;;;;;;5038149;28;20112;-81
2022/03/22 05:35:08;;;;;;;32.50;21.73;;;5.80;72.40;;;;;;5037434;28;20111;-81
2022/03/22 05:37:35;;;;;;;32.00;22.90;;;5.80;72.40;;;;;;5037545;28;20049;-81
2022/03/22 05:40:03;;;;;;;33.13;22.60;;;5.80;72.40;;;;;;5035590;28;20099;-81
2022/03/22 05:42:31;;;;;;;34.22;22.77;;;5.70;72.40;;;;;;5034270;28;20058;-81
2022/03/22 05:44:58;;;;;;;32.50;23.33;;;5.70;72.40;;;;;;5039412;28;20423;-81
2022/03/22 05:47:25;;;;;;;31.50;21.85;;;5.70;72.40;;;;;;5037222;28;20045;-81
2022/03/22 05:49:52;;;;;;;32.20;22.27;;;5.70;72.50;;;;;;5037149;28;20100;-81
2022/03/22 05:52:19;;;;;;;31.02;21.80;;;5.70;72.40;;;;;;5037186;28;20057;-80
2022/03/22 05:54:46;;;;;;;32.65;21.88;;;5.70;72.50;;;;;;5033220;28;20053;-81
2022/03/22 05:57:13;;;;;;;33.92;22.05;;;5.70;72.50;;;;;;5037712;28;20099;-81
2022/03/22 05:59:40;;;;;;;35.05;22.35;;;5.70;72.50;;;;;;5036133;28;20060;-81
2022/03/22 06:02:07;;;;;;;34.28;22.67;;;5.60;72.50;;;;;;5037214;28;20037;-81
2022/03/22 06:04:34;;;;;;;35.13;23.00;;;5.60;72.60;;;;;;5037256;28;20064;-81
2022/03/22 06:07:01;;;;;;;32.33;22.98;;;5.60;72.60;;;;;;5035409;28;20052;-81
2022/03/22 06:09:27;;;;;;;32.05;22.20;;;5.60;72.60;;;;;;5033730;28;20057;-81
2022/03/22 06:11:55;;;;;;;32.53;23.25;;;5.60;72.60;;;;;;5038858;28;20052;-81
2022/03/22 06:14:22;;;;;;;34.05;23.02;;;5.60;72.60;;;;;;5036613;28;20056;-81
2022/03/22 06:16:49;;;;;;;31.15;21.90;;;5.50;72.70;;;;;;5035529;28;20510;-81
2022/03/22 06:19:16;;;;;;;31.45;22.85;;;5.50;72.70;;;;;;5035615;28;20045;-81
2022/03/22 06:21:44;;;;;;;31.63;22.00;;;5.50;72.70;;;;;;5032693;28;20050;-81
2022/03/22 06:24:11;;;;;;;33.00;22.00;;;5.50;72.70;;;;;;5037368;28;20056;-80
2022/03/22 06:26:38;;;;;;;28.92;21.42;;;5.50;72.70;;;;;;5035564;28;20075;-81
2022/03/22 06:29:05;;;;;;;31.73;21.80;;;5.50;72.70;;;;;;5036225;28;20074;-82
2022/03/22 06:31:33;;;;;;;30.70;20.55;;;5.50;72.70;;;;;;5036286;28;20057;-82
2022/03/22 06:34:04;;;;;;;32.55;21.55;;;5.50;72.80;;;;;;5034681;28;20507;-81
2022/03/22 06:36:30;;;;;;;32.80;22.95;;;5.50;72.80;;;;;;5032836;28;20107;-81
2022/03/22 06:38:57;;;;;;;31.60;21.08;;;5.50;72.90;;;;;;5037786;28;20045;-81
2022/03/22 06:41:24;;;;;;;35.55;20.98;;;5.50;72.90;;;;;;5035886;28;20046;-81
2022/03/22 06:43:53;;;;;;;30.48;21.58;;;5.40;73.00;;;;;;5036054;28;20061;-81
2022/03/22 06:46:22;;;;;;;30.08;21.45;;;5.50;73.00;;;;;;5035884;28;20053;-81
2022/03/22 06:48:49;;;;;;;33.88;20.60;;;5.50;73.00;;;;;;5032484;28;20399;-82
2022/03/22 06:51:23;;;;;;;34.67;21.55;;;5.40;73.10;;;;;;5034308;28;20068;-81
2022/03/22 06:53:50;;;;;;;34.53;22.73;;;5.50;73.20;;;;;;5037231;28;20104;-81
2022/03/22 06:56:16;;;;;;;28.05;21.42;;;5.50;73.20;;;;;;5035900;28;20100;-81
2022/03/22 06:58:43;;;;;;;29.42;21.15;;;5.50;73.30;;;;;;5035690;28;20464;-81
2022/03/22 07:01:10;;;;;;;29.08;20.27;;;5.50;73.30;;;;;;5035295;28;20102;-81
2022/03/22 07:03:43;;;;;;;31.80;22.15;;;5.50;73.30;;;;;;5016116;28;20421;-81
2022/03/22 07:06:10;;;;;;;29.20;20.55;;;5.50;73.40;;;;;;5020572;28;20510;-81
2022/03/22 07:08:37;;;;;;;27.67;19.48;;;5.50;73.40;;;;;;5035613;28;20136;-81
2022/03/22 07:13:49;;;;;;;31.33;21.92;;;5.60;73.50;;;;;;5035417;28;20053;-81
2022/03/22 07:16:16;;;;;;;30.60;20.42;;;5.60;73.60;;;;;;5033302;28;20081;-81
2022/03/22 07:18:44;;;;;;;28.73;20.20;;;5.60;73.60;;;;;;5031283;28;20053;-81
2022/03/22 07:21:10;;;;;;;30.48;20.60;;;5.70;73.70;;;;;;5049476;28;20484;-82
2022/03/22 07:23:38;;;;;;;27.02;19.90;;;5.70;73.80;;;;;;5032857;28;20045;-82
2022/03/22 07:26:05;;;;;;;28.42;19.77;;;5.70;73.80;;;;;;5035123;28;20120;-82
2022/03/22 07:28:32;;;;;;;28.40;20.08;;;5.70;73.80;;;;;;5035035;28;20053;-82
2022/03/22 07:30:59;;;;;;;29.13;20.25;;;5.70;73.90;;;;;;5033000;28;20056;-82
2022/03/22 07:33:27;;;;;;;30.23;20.77;;;5.80;74.00;;;;;;5032234;28;20136;-82
2022/03/22 07:35:54;;;;;;;35.53;21.73;;;5.80;74.10;;;;;;5036550;28;20498;-81
2022/03/22 07:38:21;;;;;;;30.33;21.45;;;5.90;74.20;;;;;;5034836;28;20076;-82
2022/03/22 07:40:48;;;;;;;28.70;20.25;;;5.90;74.30;;;;;;5035033;28;20390;-81
2022/03/22 07:43:15;;;;;;;27.73;19.60;;;5.90;74.30;;;;;;5032429;28;20098;-81
2022/03/22 07:45:42;;;;;;;27.98;20.02;;;6.00;74.40;;;;;;5030583;28;20042;-81
2022/03/22 07:48:08;;;;;;;31.33;20.83;;;6.00;74.40;;;;;;5036584;28;20468;-81
2022/03/22 07:53:21;;;;;;;28.90;20.67;;;6.10;74.40;;;;;;5043919;28;20111;-81
2022/03/22 07:55:48;;;;;;;30.15;20.85;;;6.20;74.40;;;;;;5041206;28;20437;-81
2022/03/22 07:58:15;;;;;;;29.02;19.88;;;6.20;74.40;;;;;;5034830;28;20048;-80
2022/03/22 08:00:42;;;;;;;27.35;19.63;;;6.30;74.50;;;;;;5030432;28;20806;-81
2022/03/22 08:03:13;;;;;;;30.73;20.67;;;6.40;74.50;;;;;;5036197;28;20083;-81
2022/03/22 08:05:44;;;;;;;31.67;20.90;;;6.40;74.60;;;;;;5033529;28;20124;-81
2022/03/22 08:08:11;;;;;;;30.38;21.00;;;6.50;74.60;;;;;;5034563;28;20513;-81
2022/03/22 08:10:58;;;;;;;30.40;21.13;;;6.60;74.60;;;;;;5034396;28;20041;-82
2022/03/22 08:13:26;;;;;;;31.30;20.83;;;6.70;74.60;;;;;;5034376;28;20052;-81
2022/03/22 08:15:53;;;;;;;28.60;19.65;;;6.80;74.60;;;;;;5031969;28;20041;-81
2022/03/22 08:18:19;;;;;;;29.25;20.40;;;6.90;74.60;;;;;;5033978;28;20049;-81
2022/03/22 08:20:46;;;;;;;27.42;18.00;;;7.00;74.60;;;;;;5035814;28;20049;-81
2022/03/22 08:23:13;;;;;;;27.08;19.70;;;7.10;74.60;;;;;;5033260;28;20140;-81
2022/03/22 08:25:43;;;;;;;25.50;18.90;;;7.20;74.60;;;;;;5034592;28;20053;-81
2022/03/22 08:28:11;;;;;;;29.52;19.33;;;7.30;74.50;;;;;;5034127;28;20053;-81
2022/03/22 08:30:40;;;;;;;26.67;18.80;;;7.50;74.50;;;;;;5030455;28;20197;-81
2022/03/22 08:33:10;;;;;;;26.77;19.50;;;7.60;74.40;;;;;;5043726;28;20087;-81
2022/03/22 08:35:41;;;;;;;25.35;18.73;;;7.70;74.30;;;;;;5031847;28;20045;-81
2022/03/22 08:38:10;;;;;;;25.42;18.23;;;7.90;74.30;;;;;;5034426;28;20052;-81
2022/03/22 08:40:39;;;;;;;23.80;17.85;;;8.00;74.30;;;;;;5034530;28;20111;-81
2022/03/22 08:43:09;;;;;;;26.10;18.02;;;8.20;74.40;;;;;;5037412;28;20048;-81
2022/03/22 08:45:37;;;;;;;25.13;17.48;;;8.40;74.50;;;;;;5034659;28;20049;-81
2022/03/22 08:48:09;;;;;;;24.52;17.75;;;8.40;74.50;;;;;;5040003;28;20061;-81
2022/03/22 08:50:38;;;;;;;27.23;17.95;;;8.60;74.50;;;;;;5035879;28;20045;-82
2022/03/22 08:53:06;;;;;;;26.80;19.08;;;8.90;74.50;;;;;;5038281;28;20054;-82
2022/03/22 08:55:34;;;;;;;29.67;18.35;;;9.00;74.40;;;;;;5038186;28;20100;-80
2022/03/22 08:58:05;;;;;;;24.45;18.30;;;9.20;74.20;;;;;;5036647;28;20106;-80
2022/03/22 09:00:34;;;;;;;24.83;16.88;;;9.40;74.00;;;;;;5034745;28;20054;-81
2022/03/22 09:03:02;;;;;;;22.90;16.48;;;9.60;73.80;;;;;;5039908;28;20422;-81
2022/03/22 09:08:15;;;;;;;25.98;17.00;;;9.90;73.40;;;;;;5037962;28;20053;-82
2022/03/22 09:10:43;;;;;;;23.65;17.30;;;10.10;73.20;;;;;;5037931;28;20509;-81
2022/03/22 09:13:10;;;;;;;23.20;18.48;;;10.30;73.00;;;;;;5037133;28;20559;-81
2022/03/22 09:15:38;;;;;;;25.75;17.13;;;10.40;72.70;;;;;;5033235;28;20465;-81
2022/03/22 09:18:21;;;;;;;24.48;16.35;;;10.60;72.50;;;;;;5038778;28;20057;-81
2022/03/22 09:20:49;;;;;;;20.73;16.15;;;10.80;72.00;;;;;;5038920;28;20510;-81
2022/03/22 09:23:16;;;;;;;22.85;16.65;;;10.90;71.60;;;;;;5037543;28;20041;-81
2022/03/22 09:25:44;;;;;;;21.10;15.25;;;11.10;71.30;;;;;;5037312;28;20052;-81
2022/03/22 09:28:11;;;;;;;22.58;16.23;;;11.20;70.90;;;;;;5036997;28;20056;-81
2022/03/22 09:30:39;;;;;;;19.88;15.63;;;11.40;70.60;;;;;;5033091;28;20065;-80
2022/03/22 09:33:07;;;;;;;25.10;16.33;;;11.50;70.30;;;;;;5038856;28;20148;-81
2022/03/22 09:35:35;;;;;;;23.00;15.45;;;11.70;70.00;;;;;;5037085;28;20049;-81
2022/03/22 09:38:03;;;;;;;22.42;15.93;;;11.80;69.60;;;;;;5037108;28;20065;-81
2022/03/22 09:40:30;;;;;;;19.00;15.07;;;12.00;69.30;;;;;;5035935;28;20049;-81
2022/03/22 09:42:57;;;;;;;19.80;15.02;;;12.10;68.90;;;;;;5034949;28;20528;-81
2022/03/22 09:45:29;;;;;;;19.92;15.13;;;12.20;68.50;;;;;;5035140;28;20041;-81
2022/03/22 09:47:58;;;;;;;20.75;15.65;;;12.40;68.10;;;;;;5037264;28;20510;-82
2022/03/22 09:53:13;;;;;;;22.58;15.85;;;12.60;67.30;;;;;;5036735;28;20472;-81
2022/03/22 09:55:40;;;;;;;22.05;15.75;;;12.70;67.00;;;;;;5037004;28;20119;-81
2022/03/22 09:58:07;;;;;;;21.02;16.10;;;12.90;66.70;;;;;;5036018;28;20071;-84
2022/03/22 10:00:34;;;;;;;22.95;16.50;;;13.00;66.50;;;;;;5032979;28;20057;-82
2022/03/22 10:03:02;;;;;;;21.85;15.85;;;13.10;66.30;;;;;;5039016;28;20072;-81
2022/03/22 10:05:29;;;;;;;21.65;15.07;;;13.20;66.10;;;;;;5037062;28;20080;-81
2022/03/22 10:08:06;;;;;;;22.23;16.38;;;13.30;65.90;;;;;;5036827;28;20049;-83
2022/03/22 10:10:34;;;;;;;18.88;15.65;;;13.40;65.50;;;;;;5036786;28;20049;-82
2022/03/22 10:13:04;;;;;;;20.00;15.40;;;13.60;65.40;;;;;;5035080;28;20041;-83
2022/03/22 10:15:33;;;;;;;22.42;15.02;;;13.70;65.10;;;;;;5033172;28;20093;-83
2022/03/22 10:18:04;;;;;;;24.98;15.77;;;13.70;64.90;;;;;;5038650;28;20059;-83
2022/03/22 10:20:36;;;;;;;20.77;15.35;;;13.90;64.70;;;;;;5035307;28;20470;-83
2022/03/22 10:23:05;;;;;;;18.08;14.05;;;13.90;64.50;;;;;;5036475;28;20048;-83
2022/03/22 10:25:37;;;;;;;19.80;15.43;;;14.00;64.30;;;;;;5036586;28;20049;-82
2022/03/22 10:28:06;;;;;;;21.45;16.27;;;14.20;64.00;;;;;;5035163;28;20045;-83
2022/03/22 10:30:37;;;;;;;22.80;16.23;;;14.30;63.80;;;;;;5032137;28;20064;-83
2022/03/22 10:33:05;;;;;;;23.67;15.85;;;14.40;63.70;;;;;;5038378;28;20049;-82
2022/03/22 10:35:36;;;;;;;18.65;15.43;;;14.40;63.50;;;;;;5035184;28;20107;-82
2022/03/22 10:38:06;;;;;;;21.63;15.52;;;14.50;63.20;;;;;;5036185;28;20529;-82
2022/03/22 10:40:43;;;;;;;21.42;15.93;;;14.60;62.90;;;;;;5036179;28;20525;-82
2022/03/22 10:43:20;;;;;;;19.25;14.93;;;14.70;62.70;;;;;;5035812;28;20092;-81
2022/03/22 10:45:50;;;;;;;22.02;16.63;;;14.90;62.50;;;;;;5017488;28;20460;-81
2022/03/22 10:48:30;;;;;;;20.50;16.17;;;14.90;62.30;;;;;;5036117;28;20049;-81
2022/03/22 10:50:59;;;;;;;26.00;15.45;;;15.00;62.20;;;;;;5036695;28;20061;-81
2022/03/22 10:53:28;;;;;;;18.92;15.07;;;15.00;62.10;;;;;;5035999;28;20414;-81
2022/03/22 10:56:02;;;;;;;22.75;15.85;;;15.10;62.00;;;;;;5035939;28;20045;-81
2022/03/22 10:58:30;;;;;;;20.60;15.05;;;15.20;61.90;;;;;;5034201;28;20053;-81
2022/03/22 11:01:02;;;;;;;20.25;15.43;;;15.30;61.80;;;;;;5033817;28;20084;-83
2022/03/22 11:03:32;;;;;;;19.80;14.65;;;15.40;61.60;;;;;;5032504;28;20502;-81
2022/03/22 11:06:02;;;;;;;30.25;15.55;;;15.40;61.40;;;;;;5037581;28;20045;-81
2022/03/22 11:08:30;;;;;;;21.15;16.25;;;15.50;61.10;;;;;;5034735;28;20053;-81
2022/03/22 11:11:03;;;;;;;19.60;15.18;;;15.60;61.00;;;;;;5035858;28;20041;-82
2022/03/22 11:13:30;;;;;;;20.05;15.70;;;15.70;60.80;;;;;;5035296;28;20505;-81
2022/03/22 11:15:59;;;;;;;21.40;15.57;;;15.80;60.60;;;;;;5033377;28;20057;-82
2022/03/22 11:18:28;;;;;;;21.15;15.30;;;15.90;60.50;;;;;;5033471;28;20049;-82
2022/03/22 11:21:00;;;;;;;19.33;14.82;;;15.90;60.40;;;;;;5035885;28;20075;-82
2022/03/22 11:23:29;;;;;;;19.08;14.20;;;15.90;60.20;;;;;;5035374;28;20528;-82
2022/03/22 11:26:10;;;;;;;18.20;14.95;;;16.00;60.10;;;;;;5035522;28;20095;-82
2022/03/22 11:28:39;;;;;;;17.90;14.85;;;16.10;60.00;;;;;;5035056;28;20048;-82
2022/03/22 11:31:09;;;;;;;16.77;14.40;;;16.20;60.00;;;;;;5034190;28;20053;-81
2022/03/22 11:36:36;;;;;;;24.75;14.38;;;16.30;59.80;;;;;;5046124;28;20059;-82
2022/03/22 11:39:03;;;;;;;20.27;14.13;;;16.30;59.80;;;;;;5036515;28;20049;-82
2022/03/22 11:44:36;;;;;;;16.90;14.80;;;16.40;59.50;;;;;;5035099;28;20053;-82
2022/03/22 11:47:14;;;;;;;18.10;14.07;;;16.50;59.30;;;;;;5035097;28;20418;-82
2022/03/22 11:49:59;;;;;;;18.85;14.40;;;16.60;59.20;;;;;;5034987;28;20128;-82
2022/03/22 11:52:33;;;;;;;16.98;13.57;;;16.60;58.90;;;;;;5035117;28;20049;-82
2022/03/22 11:55:10;;;;;;;;;;;16.70;58.70;;;;;;5033499;28;20482;-82
2022/03/22 11:57:50;;;;;;;17.23;13.27;;;16.80;58.60;;;;;;5030639;28;19928;-82
2022/03/22 12:00:20;;;;;;;21.90;14.02;;;16.80;58.40;;;;;;5045016;28;20052;-82
2022/03/22 12:02:53;;;;;;;16.63;12.63;;;16.90;58.20;;;;;;5035060;28;20099;-82
2022/03/22 12:05:24;;;;;;;21.27;13.45;;;16.90;58.10;;;;;;5034377;28;20115;-82
2022/03/22 12:07:51;;;;;;;17.65;13.27;;;17.00;57.90;;;;;;5034664;28;20110;-82
2022/03/22 12:10:21;;;;;;;17.55;12.88;;;17.00;57.70;;;;;;5033562;28;20099;-82
2022/03/22 12:12:50;;;;;;;19.00;12.57;;;17.10;57.50;;;;;;5030853;28;20425;-82
2022/03/22 12:15:19;;;;;;;17.98;13.25;;;17.20;57.30;;;;;;5033874;28;20059;-82
2022/03/22 12:17:46;;;;;;;16.60;12.63;;;17.20;57.20;;;;;;5034332;28;20041;-81
2022/03/22 12:20:16;;;;;;;17.30;12.68;;;17.30;57.20;;;;;;5034608;28;20056;-81
2022/03/22 12:22:46;;;;;;;18.45;13.25;;;17.40;57.00;;;;;;5034600;28;20057;-81
2022/03/22 12:25:17;;;;;;;19.35;12.32;;;17.40;56.90;;;;;;5034536;28;20053;-81
2022/03/22 12:27:50;;;;;;;15.60;12.88;;;17.50;56.70;;;;;;5014918;28;20062;-82
2022/03/22 12:30:20;;;;;;;18.73;12.60;;;17.50;56.40;;;;;;5034405;28;20057;-82
2022/03/22 12:32:58;;;;;;;15.23;12.88;;;17.60;56.30;;;;;;5035827;28;20415;-82
2022/03/22 12:35:25;;;;;;;20.50;12.38;;;17.70;56.10;;;;;;5033430;28;20041;-82
2022/03/22 12:37:53;;;;;;;16.40;11.88;;;17.70;55.90;;;;;;5034418;28;20045;-82
2022/03/22 12:40:22;;;;;;;18.33;12.63;;;17.80;55.70;;;;;;5034209;28;20053;-82
2022/03/22 12:42:50;;;;;;;14.43;11.38;;;17.90;55.50;;;;;;5030924;28;20522;-82
2022/03/22 12:45:19;;;;;;;16.05;12.23;;;17.90;55.30;;;;;;5034516;28;20045;-81
2022/03/22 12:47:48;;;;;;;14.13;11.02;;;18.00;55.10;;;;;;5035482;28;20053;-81
2022/03/22 12:50:17;;;;;;;16.30;12.40;;;18.00;54.90;;;;;;5034367;28;20520;-81
2022/03/22 12:52:44;;;;;;;14.27;11.00;;;18.10;54.70;;;;;;5034355;28;20046;-81
2022/03/22 12:55:13;;;;;;;19.13;11.35;;;18.10;54.50;;;;;;5032332;28;20625;-81
2022/03/22 12:57:44;;;;;;;15.10;11.02;;;18.20;54.30;;;;;;5014141;28;20057;-82
2022/03/22 13:00:12;;;;;;;14.13;11.30;;;18.20;54.20;;;;;;5044126;28;20091;-81
2022/03/22 13:02:39;;;;;;;13.85;10.65;;;18.40;54.10;;;;;;5034634;28;20041;-81
2022/03/22 13:05:06;;;;;;;15.93;10.88;;;18.40;54.00;;;;;;5040314;28;20528;-81
2022/03/22 13:07:35;;;;;;;14.25;10.48;;;18.40;53.80;;;;;;5042568;28;20045;-81
2022/03/22 13:12:48;;;;;;;14.90;11.05;;;18.50;53.50;;;;;;5015940;28;20053;-81
2022/03/22 13:15:20;;;;;;;16.40;10.40;;;18.60;53.30;;;;;;5032769;28;20104;-81
2022/03/22 13:17:49;;;;;;;15.23;11.07;;;18.60;53.10;;;;;;5035083;28;20391;-81